sensor_id;sensor_type;location;lat;lon;timestamp;P1;durP1;ratioP1;P2;durP2;ratioP2
9880;SDS011;4979;51.014;6.678;2022-08-19T00:01:20;10.43;;;8.43;;
9880;SDS011;4979;51.014;6.678;2022-08-19T00:03:46;9.75;;;8.55;;
9880;SDS011;4979;51.014;6.678;2022-08-19T00:06:12;12.18;;;8.07;;
9880;SDS011;4979;51.014;6.678;2022-08-19T00:08:38;9.18;;;7.68;;
9880;SDS011;4979;51.014;6.678;2022-08-19T00:11:04;12.70;;;8.48;;
9880;SDS011;4979;51.014;6.678;2022-08-19T00:13:30;13.07;;;8.52;;
9880;SDS011;4979;51.014;6.678;2022-08-19T00:15:56;14.73;;;8.25;;
9880;SDS011;4979;51.014;6.678;2022-08-19T00:18:23;10.45;;;8.70;;
9880;SDS011;4979;51.014;6.678;2022-08-19T00:20:49;12.07;;;8.00;;
9880;SDS011;4979;51.014;6.678;2022-08-19T00:23:14;9.88;;;7.85;;
9880;SDS011;4979;51.014;6.678;2022-08-19T00:25:40;11.23;;;7.75;;
9880;SDS011;4979;51.014;6.678;2022-08-19T00:28:06;10.55;;;8.25;;
9880;SDS011;4979;51.014;6.678;2022-08-19T00:30:32;15.27;;;8.27;;
9880;SDS011;4979;51.014;6.678;2022-08-19T00:32:58;12.32;;;8.15;;
9880;SDS011;4979;51.014;6.678;2022-08-19T00:35:23;10.55;;;8.48;;
9880;SDS011;4979;51.014;6.678;2022-08-19T00:37:50;12.13;;;8.15;;
9880;SDS011;4979;51.014;6.678;2022-08-19T00:40:16;9.82;;;8.60;;
9880;SDS011;4979;51.014;6.678;2022-08-19T00:42:43;13.90;;;9.30;;
9880;SDS011;4979;51.014;6.678;2022-08-19T00:45:17;16.17;;;9.25;;
9880;SDS011;4979;51.014;6.678;2022-08-19T00:47:45;12.80;;;9.68;;
9880;SDS011;4979;51.014;6.678;2022-08-19T00:50:11;11.65;;;9.60;;
9880;SDS011;4979;51.014;6.678;2022-08-19T00:52:42;12.07;;;10.55;;
9880;SDS011;4979;51.014;6.678;2022-08-19T00:55:15;13.43;;;11.27;;
9880;SDS011;4979;51.014;6.678;2022-08-19T00:57:48;15.52;;;11.60;;
9880;SDS011;4979;51.014;6.678;2022-08-19T01:00:19;14.23;;;12.05;;
9880;SDS011;4979;51.014;6.678;2022-08-19T01:02:47;13.32;;;11.45;;
9880;SDS011;4979;51.014;6.678;2022-08-19T01:05:14;13.18;;;11.80;;
9880;SDS011;4979;51.014;6.678;2022-08-19T01:07:48;14.35;;;12.95;;
9880;SDS011;4979;51.014;6.678;2022-08-19T01:10:16;12.98;;;11.57;;
9880;SDS011;4979;51.014;6.678;2022-08-19T01:12:45;18.73;;;12.73;;
9880;SDS011;4979;51.014;6.678;2022-08-19T01:15:12;13.95;;;12.60;;
9880;SDS011;4979;51.014;6.678;2022-08-19T01:17:42;16.10;;;13.63;;
9880;SDS011;4979;51.014;6.678;2022-08-19T01:20:10;14.70;;;13.20;;
9880;SDS011;4979;51.014;6.678;2022-08-19T01:25:15;16.70;;;14.02;;
9880;SDS011;4979;51.014;6.678;2022-08-19T01:27:44;15.57;;;13.95;;
9880;SDS011;4979;51.014;6.678;2022-08-19T01:30:13;15.88;;;14.18;;
9880;SDS011;4979;51.014;6.678;2022-08-19T01:32:51;18.90;;;15.02;;
9880;SDS011;4979;51.014;6.678;2022-08-19T01:35:18;17.85;;;14.23;;
9880;SDS011;4979;51.014;6.678;2022-08-19T01:37:54;19.55;;;16.10;;
9880;SDS011;4979;51.014;6.678;2022-08-19T01:40:26;17.55;;;14.93;;
9880;SDS011;4979;51.014;6.678;2022-08-19T01:42:54;17.30;;;15.48;;
9880;SDS011;4979;51.014;6.678;2022-08-19T01:45:20;24.50;;;15.32;;
9880;SDS011;4979;51.014;6.678;2022-08-19T01:47:48;18.98;;;15.98;;
9880;SDS011;4979;51.014;6.678;2022-08-19T01:50:14;20.25;;;16.50;;
9880;SDS011;4979;51.014;6.678;2022-08-19T01:52:41;17.63;;;15.63;;
9880;SDS011;4979;51.014;6.678;2022-08-19T01:55:11;18.42;;;16.48;;
9880;SDS011;4979;51.014;6.678;2022-08-19T01:57:39;21.42;;;17.67;;
9880;SDS011;4979;51.014;6.678;2022-08-19T02:00:09;21.67;;;18.27;;
9880;SDS011;4979;51.014;6.678;2022-08-19T02:02:37;22.60;;;18.20;;
9880;SDS011;4979;51.014;6.678;2022-08-19T02:05:04;21.80;;;18.58;;
9880;SDS011;4979;51.014;6.678;2022-08-19T02:07:32;25.50;;;19.48;;
9880;SDS011;4979;51.014;6.678;2022-08-19T02:09:57;22.95;;;19.05;;
9880;SDS011;4979;51.014;6.678;2022-08-19T02:12:23;22.42;;;18.10;;
9880;SDS011;4979;51.014;6.678;2022-08-19T02:14:49;20.52;;;18.38;;
9880;SDS011;4979;51.014;6.678;2022-08-19T02:17:14;20.98;;;18.67;;
9880;SDS011;4979;51.014;6.678;2022-08-19T02:19:40;20.50;;;17.48;;
9880;SDS011;4979;51.014;6.678;2022-08-19T02:22:06;19.75;;;16.52;;
9880;SDS011;4979;51.014;6.678;2022-08-19T02:24:31;20.63;;;17.27;;
9880;SDS011;4979;51.014;6.678;2022-08-19T02:26:57;20.83;;;17.48;;
9880;SDS011;4979;51.014;6.678;2022-08-19T02:29:23;21.30;;;18.80;;
9880;SDS011;4979;51.014;6.678;2022-08-19T02:31:49;23.15;;;20.60;;
9880;SDS011;4979;51.014;6.678;2022-08-19T02:34:16;22.15;;;19.85;;
9880;SDS011;4979;51.014;6.678;2022-08-19T02:36:42;23.98;;;20.13;;
9880;SDS011;4979;51.014;6.678;2022-08-19T02:39:07;27.85;;;22.25;;
9880;SDS011;4979;51.014;6.678;2022-08-19T02:41:34;25.38;;;22.58;;
9880;SDS011;4979;51.014;6.678;2022-08-19T02:44:00;27.23;;;22.50;;
9880;SDS011;4979;51.014;6.678;2022-08-19T02:46:28;26.88;;;22.73;;
9880;SDS011;4979;51.014;6.678;2022-08-19T02:48:56;28.83;;;23.70;;
9880;SDS011;4979;51.014;6.678;2022-08-19T02:51:25;27.40;;;23.65;;
9880;SDS011;4979;51.014;6.678;2022-08-19T02:53:53;30.08;;;23.83;;
9880;SDS011;4979;51.014;6.678;2022-08-19T02:56:19;35.00;;;23.98;;
9880;SDS011;4979;51.014;6.678;2022-08-19T02:58:44;28.77;;;25.38;;
9880;SDS011;4979;51.014;6.678;2022-08-19T03:01:10;30.95;;;25.75;;
9880;SDS011;4979;51.014;6.678;2022-08-19T03:03:37;27.88;;;23.65;;
9880;SDS011;4979;51.014;6.678;2022-08-19T03:06:10;29.83;;;24.55;;
9880;SDS011;4979;51.014;6.678;2022-08-19T03:08:40;30.40;;;25.50;;
9880;SDS011;4979;51.014;6.678;2022-08-19T03:11:15;32.15;;;26.00;;
9880;SDS011;4979;51.014;6.678;2022-08-19T03:13:41;29.38;;;25.90;;
9880;SDS011;4979;51.014;6.678;2022-08-19T03:16:08;31.92;;;26.80;;
9880;SDS011;4979;51.014;6.678;2022-08-19T03:18:34;33.85;;;27.75;;
9880;SDS011;4979;51.014;6.678;2022-08-19T03:21:00;30.42;;;26.40;;
9880;SDS011;4979;51.014;6.678;2022-08-19T03:23:26;32.67;;;29.13;;
9880;SDS011;4979;51.014;6.678;2022-08-19T03:25:52;36.92;;;29.13;;
9880;SDS011;4979;51.014;6.678;2022-08-19T03:28:19;35.38;;;27.77;;
9880;SDS011;4979;51.014;6.678;2022-08-19T03:30:55;32.50;;;26.67;;
9880;SDS011;4979;51.014;6.678;2022-08-19T03:33:26;32.72;;;27.85;;
9880;SDS011;4979;51.014;6.678;2022-08-19T03:36:08;35.28;;;29.05;;
9880;SDS011;4979;51.014;6.678;2022-08-19T03:38:37;35.03;;;29.50;;
9880;SDS011;4979;51.014;6.678;2022-08-19T03:41:06;33.90;;;27.05;;
9880;SDS011;4979;51.014;6.678;2022-08-19T03:43:35;36.40;;;28.85;;
9880;SDS011;4979;51.014;6.678;2022-08-19T03:46:05;35.25;;;28.83;;
9880;SDS011;4979;51.014;6.678;2022-08-19T03:48:33;35.60;;;29.95;;
9880;SDS011;4979;51.014;6.678;2022-08-19T03:50:59;34.53;;;30.17;;
9880;SDS011;4979;51.014;6.678;2022-08-19T03:53:26;40.10;;;31.25;;
9880;SDS011;4979;51.014;6.678;2022-08-19T03:55:52;41.67;;;31.08;;
9880;SDS011;4979;51.014;6.678;2022-08-19T03:58:18;37.47;;;32.58;;
9880;SDS011;4979;51.014;6.678;2022-08-19T04:00:45;36.58;;;30.67;;
9880;SDS011;4979;51.014;6.678;2022-08-19T04:03:10;43.88;;;34.72;;
9880;SDS011;4979;51.014;6.678;2022-08-19T04:05:36;39.40;;;32.15;;
9880;SDS011;4979;51.014;6.678;2022-08-19T04:08:03;46.10;;;31.48;;
9880;SDS011;4979;51.014;6.678;2022-08-19T04:10:30;39.17;;;31.98;;
9880;SDS011;4979;51.014;6.678;2022-08-19T04:13:00;33.00;;;28.48;;
9880;SDS011;4979;51.014;6.678;2022-08-19T04:15:25;33.60;;;28.33;;
9880;SDS011;4979;51.014;6.678;2022-08-19T04:17:52;35.80;;;29.17;;
9880;SDS011;4979;51.014;6.678;2022-08-19T04:20:18;32.67;;;29.13;;
9880;SDS011;4979;51.014;6.678;2022-08-19T04:22:43;37.28;;;29.42;;
9880;SDS011;4979;51.014;6.678;2022-08-19T04:25:09;37.65;;;31.05;;
9880;SDS011;4979;51.014;6.678;2022-08-19T04:27:35;35.72;;;29.10;;
9880;SDS011;4979;51.014;6.678;2022-08-19T04:30:00;39.45;;;29.80;;
9880;SDS011;4979;51.014;6.678;2022-08-19T04:32:26;39.90;;;30.15;;
9880;SDS011;4979;51.014;6.678;2022-08-19T04:34:52;38.78;;;29.75;;
9880;SDS011;4979;51.014;6.678;2022-08-19T04:37:18;37.72;;;29.65;;
9880;SDS011;4979;51.014;6.678;2022-08-19T04:39:43;38.70;;;29.45;;
9880;SDS011;4979;51.014;6.678;2022-08-19T04:42:28;40.80;;;30.52;;
9880;SDS011;4979;51.014;6.678;2022-08-19T04:45:06;35.45;;;30.92;;
9880;SDS011;4979;51.014;6.678;2022-08-19T04:47:38;39.50;;;31.40;;
9880;SDS011;4979;51.014;6.678;2022-08-19T04:50:06;34.80;;;28.80;;
9880;SDS011;4979;51.014;6.678;2022-08-19T04:52:32;35.53;;;29.02;;
9880;SDS011;4979;51.014;6.678;2022-08-19T04:54:58;36.17;;;30.17;;
9880;SDS011;4979;51.014;6.678;2022-08-19T04:57:24;41.67;;;30.55;;
9880;SDS011;4979;51.014;6.678;2022-08-19T04:59:54;39.13;;;30.02;;
9880;SDS011;4979;51.014;6.678;2022-08-19T05:02:20;36.95;;;29.40;;
9880;SDS011;4979;51.014;6.678;2022-08-19T05:04:50;33.08;;;28.95;;
9880;SDS011;4979;51.014;6.678;2022-08-19T05:07:20;36.47;;;29.75;;
9880;SDS011;4979;51.014;6.678;2022-08-19T05:09:46;37.03;;;29.50;;
9880;SDS011;4979;51.014;6.678;2022-08-19T05:12:11;36.17;;;29.05;;
9880;SDS011;4979;51.014;6.678;2022-08-19T05:14:37;36.03;;;28.75;;
9880;SDS011;4979;51.014;6.678;2022-08-19T05:17:03;39.95;;;30.15;;
9880;SDS011;4979;51.014;6.678;2022-08-19T05:19:28;39.30;;;30.85;;
9880;SDS011;4979;51.014;6.678;2022-08-19T05:22:12;34.88;;;27.65;;
9880;SDS011;4979;51.014;6.678;2022-08-19T05:24:56;33.33;;;27.90;;
9880;SDS011;4979;51.014;6.678;2022-08-19T05:27:22;32.28;;;27.10;;
9880;SDS011;4979;51.014;6.678;2022-08-19T05:29:47;32.75;;;28.55;;
9880;SDS011;4979;51.014;6.678;2022-08-19T05:32:13;33.60;;;28.75;;
9880;SDS011;4979;51.014;6.678;2022-08-19T05:34:39;34.28;;;26.58;;
9880;SDS011;4979;51.014;6.678;2022-08-19T05:37:04;32.90;;;28.42;;
9880;SDS011;4979;51.014;6.678;2022-08-19T05:39:33;34.70;;;28.02;;
9880;SDS011;4979;51.014;6.678;2022-08-19T05:42:03;36.00;;;28.27;;
9880;SDS011;4979;51.014;6.678;2022-08-19T05:44:32;37.55;;;28.83;;
9880;SDS011;4979;51.014;6.678;2022-08-19T05:47:00;37.42;;;28.25;;
9880;SDS011;4979;51.014;6.678;2022-08-19T05:49:27;37.30;;;29.50;;
9880;SDS011;4979;51.014;6.678;2022-08-19T05:51:53;34.15;;;30.23;;
9880;SDS011;4979;51.014;6.678;2022-08-19T05:54:20;34.92;;;29.23;;
9880;SDS011;4979;51.014;6.678;2022-08-19T05:56:48;34.92;;;29.00;;
9880;SDS011;4979;51.014;6.678;2022-08-19T05:59:15;34.33;;;29.85;;
9880;SDS011;4979;51.014;6.678;2022-08-19T06:01:42;37.88;;;30.80;;
9880;SDS011;4979;51.014;6.678;2022-08-19T06:04:10;38.15;;;29.95;;
9880;SDS011;4979;51.014;6.678;2022-08-19T06:06:38;37.15;;;30.02;;
9880;SDS011;4979;51.014;6.678;2022-08-19T06:09:05;34.50;;;28.77;;
9880;SDS011;4979;51.014;6.678;2022-08-19T06:11:34;38.65;;;29.88;;
9880;SDS011;4979;51.014;6.678;2022-08-19T06:14:15;35.50;;;29.38;;
9880;SDS011;4979;51.014;6.678;2022-08-19T06:16:42;35.25;;;31.05;;
9880;SDS011;4979;51.014;6.678;2022-08-19T06:19:11;38.42;;;30.55;;
9880;SDS011;4979;51.014;6.678;2022-08-19T06:21:39;42.25;;;31.20;;
9880;SDS011;4979;51.014;6.678;2022-08-19T06:24:07;37.92;;;31.65;;
9880;SDS011;4979;51.014;6.678;2022-08-19T06:26:36;38.28;;;31.83;;
9880;SDS011;4979;51.014;6.678;2022-08-19T06:29:04;36.63;;;30.35;;
9880;SDS011;4979;51.014;6.678;2022-08-19T06:31:31;44.80;;;33.28;;
9880;SDS011;4979;51.014;6.678;2022-08-19T06:33:59;39.95;;;31.33;;
9880;SDS011;4979;51.014;6.678;2022-08-19T06:36:31;41.13;;;32.05;;
9880;SDS011;4979;51.014;6.678;2022-08-19T06:39:21;41.78;;;32.88;;
9880;SDS011;4979;51.014;6.678;2022-08-19T06:41:48;40.17;;;32.92;;
9880;SDS011;4979;51.014;6.678;2022-08-19T06:44:16;40.67;;;32.25;;
9880;SDS011;4979;51.014;6.678;2022-08-19T06:46:42;42.72;;;33.78;;
9880;SDS011;4979;51.014;6.678;2022-08-19T06:49:08;47.13;;;35.83;;
9880;SDS011;4979;51.014;6.678;2022-08-19T06:51:38;41.90;;;32.60;;
9880;SDS011;4979;51.014;6.678;2022-08-19T06:54:04;43.78;;;34.05;;
9880;SDS011;4979;51.014;6.678;2022-08-19T06:56:30;47.35;;;34.92;;
9880;SDS011;4979;51.014;6.678;2022-08-19T06:59:03;48.45;;;33.42;;
9880;SDS011;4979;51.014;6.678;2022-08-19T07:01:31;43.50;;;34.00;;
9880;SDS011;4979;51.014;6.678;2022-08-19T07:04:00;48.45;;;34.78;;
9880;SDS011;4979;51.014;6.678;2022-08-19T07:06:27;49.40;;;35.50;;
9880;SDS011;4979;51.014;6.678;2022-08-19T07:08:52;49.00;;;34.53;;
9880;SDS011;4979;51.014;6.678;2022-08-19T07:11:18;47.53;;;35.00;;
9880;SDS011;4979;51.014;6.678;2022-08-19T07:13:44;47.92;;;34.13;;
9880;SDS011;4979;51.014;6.678;2022-08-19T07:16:13;48.17;;;34.75;;
9880;SDS011;4979;51.014;6.678;2022-08-19T07:18:41;46.83;;;36.00;;
9880;SDS011;4979;51.014;6.678;2022-08-19T07:21:11;46.67;;;36.22;;
9880;SDS011;4979;51.014;6.678;2022-08-19T07:23:46;44.28;;;34.00;;
9880;SDS011;4979;51.014;6.678;2022-08-19T07:26:23;51.33;;;37.42;;
9880;SDS011;4979;51.014;6.678;2022-08-19T07:28:51;48.65;;;35.45;;
9880;SDS011;4979;51.014;6.678;2022-08-19T07:31:18;46.80;;;34.78;;
9880;SDS011;4979;51.014;6.678;2022-08-19T07:33:48;51.65;;;37.97;;
9880;SDS011;4979;51.014;6.678;2022-08-19T07:36:17;52.10;;;36.60;;
9880;SDS011;4979;51.014;6.678;2022-08-19T07:38:46;56.53;;;37.85;;
9880;SDS011;4979;51.014;6.678;2022-08-19T07:41:14;57.30;;;39.67;;
9880;SDS011;4979;51.014;6.678;2022-08-19T07:43:42;57.90;;;37.08;;
9880;SDS011;4979;51.014;6.678;2022-08-19T07:46:09;59.53;;;38.65;;
9880;SDS011;4979;51.014;6.678;2022-08-19T07:48:36;56.72;;;39.50;;
9880;SDS011;4979;51.014;6.678;2022-08-19T07:51:03;57.47;;;37.88;;
9880;SDS011;4979;51.014;6.678;2022-08-19T07:53:32;55.47;;;37.33;;
9880;SDS011;4979;51.014;6.678;2022-08-19T07:55:58;52.22;;;36.95;;
9880;SDS011;4979;51.014;6.678;2022-08-19T07:58:27;50.55;;;37.17;;
9880;SDS011;4979;51.014;6.678;2022-08-19T08:00:53;55.20;;;37.05;;
9880;SDS011;4979;51.014;6.678;2022-08-19T08:03:20;51.83;;;35.28;;
9880;SDS011;4979;51.014;6.678;2022-08-19T08:06:06;52.38;;;37.05;;
9880;SDS011;4979;51.014;6.678;2022-08-19T08:08:51;48.53;;;34.53;;
9880;SDS011;4979;51.014;6.678;2022-08-19T08:11:34;50.78;;;35.95;;
9880;SDS011;4979;51.014;6.678;2022-08-19T08:14:00;48.22;;;34.13;;
9880;SDS011;4979;51.014;6.678;2022-08-19T08:16:26;47.78;;;32.17;;
9880;SDS011;4979;51.014;6.678;2022-08-19T08:18:55;43.63;;;31.42;;
9880;SDS011;4979;51.014;6.678;2022-08-19T08:21:20;44.10;;;30.25;;
9880;SDS011;4979;51.014;6.678;2022-08-19T08:23:46;43.45;;;32.22;;
9880;SDS011;4979;51.014;6.678;2022-08-19T08:26:11;46.42;;;32.28;;
9880;SDS011;4979;51.014;6.678;2022-08-19T08:28:39;42.30;;;28.42;;
9880;SDS011;4979;51.014;6.678;2022-08-19T08:31:04;40.33;;;28.02;;
9880;SDS011;4979;51.014;6.678;2022-08-19T08:33:30;39.22;;;28.48;;
9880;SDS011;4979;51.014;6.678;2022-08-19T08:35:56;39.47;;;27.45;;
9880;SDS011;4979;51.014;6.678;2022-08-19T08:38:21;35.65;;;24.85;;
9880;SDS011;4979;51.014;6.678;2022-08-19T08:40:48;34.38;;;25.63;;
9880;SDS011;4979;51.014;6.678;2022-08-19T08:43:20;31.70;;;24.58;;
9880;SDS011;4979;51.014;6.678;2022-08-19T08:46:08;35.72;;;25.75;;
9880;SDS011;4979;51.014;6.678;2022-08-19T08:48:49;30.83;;;24.30;;
9880;SDS011;4979;51.014;6.678;2022-08-19T08:51:27;32.55;;;24.70;;
9880;SDS011;4979;51.014;6.678;2022-08-19T08:54:06;31.17;;;23.92;;
9880;SDS011;4979;51.014;6.678;2022-08-19T08:56:33;32.42;;;22.40;;
9880;SDS011;4979;51.014;6.678;2022-08-19T08:59:02;30.38;;;24.20;;
9880;SDS011;4979;51.014;6.678;2022-08-19T09:01:33;31.75;;;23.92;;
9880;SDS011;4979;51.014;6.678;2022-08-19T09:03:59;30.85;;;22.90;;
9880;SDS011;4979;51.014;6.678;2022-08-19T09:09:03;29.05;;;21.15;;
9880;SDS011;4979;51.014;6.678;2022-08-19T09:11:44;26.13;;;17.27;;
9880;SDS011;4979;51.014;6.678;2022-08-19T09:17:17;21.67;;;17.50;;
9880;SDS011;4979;51.014;6.678;2022-08-19T09:20:02;19.85;;;16.23;;
9880;SDS011;4979;51.014;6.678;2022-08-19T09:22:39;19.77;;;16.83;;
9880;SDS011;4979;51.014;6.678;2022-08-19T09:25:09;16.92;;;14.57;;
9880;SDS011;4979;51.014;6.678;2022-08-19T09:27:38;18.00;;;15.25;;
9880;SDS011;4979;51.014;6.678;2022-08-19T09:30:05;16.23;;;13.73;;
9880;SDS011;4979;51.014;6.678;2022-08-19T09:32:33;18.45;;;14.45;;
9880;SDS011;4979;51.014;6.678;2022-08-19T09:34:59;17.17;;;14.48;;
9880;SDS011;4979;51.014;6.678;2022-08-19T09:37:26;19.52;;;16.50;;
9880;SDS011;4979;51.014;6.678;2022-08-19T09:39:52;17.58;;;15.77;;
9880;SDS011;4979;51.014;6.678;2022-08-19T09:42:18;21.75;;;18.35;;
9880;SDS011;4979;51.014;6.678;2022-08-19T09:44:45;19.75;;;15.93;;
9880;SDS011;4979;51.014;6.678;2022-08-19T09:47:11;20.35;;;15.13;;
9880;SDS011;4979;51.014;6.678;2022-08-19T09:49:38;25.38;;;16.27;;
9880;SDS011;4979;51.014;6.678;2022-08-19T09:52:04;21.25;;;16.83;;
9880;SDS011;4979;51.014;6.678;2022-08-19T09:54:32;20.80;;;17.23;;
9880;SDS011;4979;51.014;6.678;2022-08-19T09:56:58;20.65;;;18.13;;
9880;SDS011;4979;51.014;6.678;2022-08-19T09:59:28;20.13;;;16.55;;
9880;SDS011;4979;51.014;6.678;2022-08-19T10:01:54;24.55;;;17.08;;
9880;SDS011;4979;51.014;6.678;2022-08-19T10:04:20;23.05;;;17.00;;
9880;SDS011;4979;51.014;6.678;2022-08-19T10:06:46;22.00;;;18.70;;
9880;SDS011;4979;51.014;6.678;2022-08-19T10:09:13;22.33;;;18.42;;
9880;SDS011;4979;51.014;6.678;2022-08-19T10:11:41;20.23;;;17.65;;
9880;SDS011;4979;51.014;6.678;2022-08-19T10:14:08;19.63;;;16.77;;
9880;SDS011;4979;51.014;6.678;2022-08-19T10:16:33;18.27;;;15.70;;
9880;SDS011;4979;51.014;6.678;2022-08-19T10:19:01;20.70;;;16.42;;
9880;SDS011;4979;51.014;6.678;2022-08-19T10:21:28;19.73;;;16.05;;
9880;SDS011;4979;51.014;6.678;2022-08-19T10:23:56;17.20;;;15.40;;
9880;SDS011;4979;51.014;6.678;2022-08-19T10:26:27;17.83;;;15.93;;
9880;SDS011;4979;51.014;6.678;2022-08-19T10:28:55;17.58;;;15.48;;
9880;SDS011;4979;51.014;6.678;2022-08-19T10:31:23;17.90;;;13.30;;
9880;SDS011;4979;51.014;6.678;2022-08-19T10:33:51;15.85;;;13.52;;
9880;SDS011;4979;51.014;6.678;2022-08-19T10:36:22;15.85;;;14.23;;
9880;SDS011;4979;51.014;6.678;2022-08-19T10:38:54;15.82;;;14.10;;
9880;SDS011;4979;51.014;6.678;2022-08-19T10:41:25;16.10;;;13.75;;
9880;SDS011;4979;51.014;6.678;2022-08-19T10:43:56;13.40;;;12.00;;
9880;SDS011;4979;51.014;6.678;2022-08-19T10:46:25;13.13;;;11.73;;
9880;SDS011;4979;51.014;6.678;2022-08-19T10:48:52;16.33;;;12.60;;
9880;SDS011;4979;51.014;6.678;2022-08-19T10:51:19;13.98;;;12.48;;
9880;SDS011;4979;51.014;6.678;2022-08-19T10:54:04;13.82;;;11.98;;
9880;SDS011;4979;51.014;6.678;2022-08-19T10:56:30;15.65;;;13.18;;
9880;SDS011;4979;51.014;6.678;2022-08-19T10:59:16;18.25;;;14.70;;
9880;SDS011;4979;51.014;6.678;2022-08-19T11:01:52;13.45;;;12.05;;
9880;SDS011;4979;51.014;6.678;2022-08-19T11:04:18;13.02;;;11.75;;
9880;SDS011;4979;51.014;6.678;2022-08-19T11:06:45;14.48;;;12.88;;
9880;SDS011;4979;51.014;6.678;2022-08-19T11:09:13;16.83;;;13.07;;
9880;SDS011;4979;51.014;6.678;2022-08-19T11:11:40;18.85;;;13.65;;
9880;SDS011;4979;51.014;6.678;2022-08-19T11:14:07;16.70;;;13.63;;
9880;SDS011;4979;51.014;6.678;2022-08-19T11:16:37;16.98;;;13.02;;
9880;SDS011;4979;51.014;6.678;2022-08-19T11:19:04;12.95;;;11.20;;
9880;SDS011;4979;51.014;6.678;2022-08-19T11:21:33;13.73;;;11.27;;
9880;SDS011;4979;51.014;6.678;2022-08-19T11:24:01;15.43;;;12.02;;
9880;SDS011;4979;51.014;6.678;2022-08-19T11:26:31;12.82;;;10.50;;
9880;SDS011;4979;51.014;6.678;2022-08-19T11:28:59;12.02;;;10.55;;
9880;SDS011;4979;51.014;6.678;2022-08-19T11:31:26;12.02;;;10.45;;
9880;SDS011;4979;51.014;6.678;2022-08-19T11:34:01;13.02;;;11.63;;
9880;SDS011;4979;51.014;6.678;2022-08-19T11:36:29;13.05;;;11.52;;
9880;SDS011;4979;51.014;6.678;2022-08-19T11:38:57;13.40;;;11.57;;
9880;SDS011;4979;51.014;6.678;2022-08-19T11:41:22;10.48;;;9.10;;
9880;SDS011;4979;51.014;6.678;2022-08-19T11:43:49;11.10;;;9.15;;
9880;SDS011;4979;51.014;6.678;2022-08-19T11:46:17;13.30;;;10.55;;
9880;SDS011;4979;51.014;6.678;2022-08-19T11:48:43;12.55;;;10.20;;
9880;SDS011;4979;51.014;6.678;2022-08-19T11:51:10;12.75;;;9.60;;
9880;SDS011;4979;51.014;6.678;2022-08-19T11:53:38;16.02;;;12.52;;
9880;SDS011;4979;51.014;6.678;2022-08-19T11:56:05;15.40;;;13.27;;
9880;SDS011;4979;51.014;6.678;2022-08-19T11:58:33;13.73;;;11.13;;
9880;SDS011;4979;51.014;6.678;2022-08-19T12:00:59;15.70;;;10.85;;
9880;SDS011;4979;51.014;6.678;2022-08-19T12:03:25;13.18;;;10.63;;
9880;SDS011;4979;51.014;6.678;2022-08-19T12:05:51;14.55;;;10.52;;
9880;SDS011;4979;51.014;6.678;2022-08-19T12:08:16;13.55;;;11.00;;
9880;SDS011;4979;51.014;6.678;2022-08-19T12:10:42;12.27;;;10.73;;
9880;SDS011;4979;51.014;6.678;2022-08-19T12:13:10;13.30;;;10.52;;
9880;SDS011;4979;51.014;6.678;2022-08-19T12:15:39;12.73;;;10.15;;
9880;SDS011;4979;51.014;6.678;2022-08-19T12:18:08;12.57;;;10.02;;
9880;SDS011;4979;51.014;6.678;2022-08-19T12:20:35;8.95;;;8.05;;
9880;SDS011;4979;51.014;6.678;2022-08-19T12:23:02;12.63;;;10.20;;
9880;SDS011;4979;51.014;6.678;2022-08-19T12:25:29;16.88;;;11.52;;
9880;SDS011;4979;51.014;6.678;2022-08-19T12:27:55;13.05;;;10.18;;
9880;SDS011;4979;51.014;6.678;2022-08-19T12:30:21;11.20;;;9.68;;
9880;SDS011;4979;51.014;6.678;2022-08-19T12:32:47;11.38;;;8.15;;
9880;SDS011;4979;51.014;6.678;2022-08-19T12:35:12;12.48;;;8.98;;
9880;SDS011;4979;51.014;6.678;2022-08-19T12:37:38;10.48;;;9.27;;
9880;SDS011;4979;51.014;6.678;2022-08-19T12:40:09;12.05;;;8.55;;
9880;SDS011;4979;51.014;6.678;2022-08-19T12:42:36;12.45;;;8.20;;
9880;SDS011;4979;51.014;6.678;2022-08-19T12:45:06;8.60;;;7.80;;
9880;SDS011;4979;51.014;6.678;2022-08-19T12:47:32;8.15;;;7.30;;
9880;SDS011;4979;51.014;6.678;2022-08-19T12:49:58;10.55;;;6.90;;
9880;SDS011;4979;51.014;6.678;2022-08-19T12:52:24;10.07;;;7.40;;
9880;SDS011;4979;51.014;6.678;2022-08-19T12:54:51;8.80;;;6.57;;
9880;SDS011;4979;51.014;6.678;2022-08-19T12:57:19;9.30;;;7.45;;
9880;SDS011;4979;51.014;6.678;2022-08-19T12:59:44;8.52;;;7.13;;
9880;SDS011;4979;51.014;6.678;2022-08-19T13:02:10;8.80;;;7.65;;
9880;SDS011;4979;51.014;6.678;2022-08-19T13:04:35;8.38;;;7.28;;
9880;SDS011;4979;51.014;6.678;2022-08-19T13:07:05;9.57;;;7.55;;
9880;SDS011;4979;51.014;6.678;2022-08-19T13:09:31;13.23;;;7.50;;
9880;SDS011;4979;51.014;6.678;2022-08-19T13:11:57;14.05;;;8.73;;
9880;SDS011;4979;51.014;6.678;2022-08-19T13:14:22;9.93;;;8.25;;
9880;SDS011;4979;51.014;6.678;2022-08-19T13:16:48;8.02;;;7.22;;
9880;SDS011;4979;51.014;6.678;2022-08-19T13:19:13;7.10;;;6.13;;
9880;SDS011;4979;51.014;6.678;2022-08-19T13:21:39;7.78;;;6.82;;
9880;SDS011;4979;51.014;6.678;2022-08-19T13:24:05;8.50;;;6.85;;
9880;SDS011;4979;51.014;6.678;2022-08-19T13:26:31;10.48;;;7.88;;
9880;SDS011;4979;51.014;6.678;2022-08-19T13:28:56;8.48;;;7.57;;
9880;SDS011;4979;51.014;6.678;2022-08-19T13:31:41;10.05;;;6.72;;
9880;SDS011;4979;51.014;6.678;2022-08-19T13:34:27;8.18;;;6.28;;
9880;SDS011;4979;51.014;6.678;2022-08-19T13:36:58;8.82;;;6.93;;
9880;SDS011;4979;51.014;6.678;2022-08-19T13:39:27;7.45;;;5.35;;
9880;SDS011;4979;51.014;6.678;2022-08-19T13:41:54;5.40;;;4.80;;
9880;SDS011;4979;51.014;6.678;2022-08-19T13:44:19;5.63;;;4.70;;
9880;SDS011;4979;51.014;6.678;2022-08-19T13:46:49;7.03;;;5.35;;
9880;SDS011;4979;51.014;6.678;2022-08-19T13:49:18;6.00;;;4.60;;
9880;SDS011;4979;51.014;6.678;2022-08-19T13:51:45;12.55;;;4.93;;
9880;SDS011;4979;51.014;6.678;2022-08-19T13:54:11;6.30;;;5.43;;
9880;SDS011;4979;51.014;6.678;2022-08-19T13:56:42;12.25;;;5.55;;
9880;SDS011;4979;51.014;6.678;2022-08-19T13:59:10;8.23;;;5.60;;
9880;SDS011;4979;51.014;6.678;2022-08-19T14:01:36;5.07;;;4.47;;
9880;SDS011;4979;51.014;6.678;2022-08-19T14:04:02;5.82;;;4.93;;
9880;SDS011;4979;51.014;6.678;2022-08-19T14:06:30;5.10;;;4.47;;
9880;SDS011;4979;51.014;6.678;2022-08-19T14:08:56;6.85;;;4.70;;
9880;SDS011;4979;51.014;6.678;2022-08-19T14:11:22;4.45;;;4.00;;
9880;SDS011;4979;51.014;6.678;2022-08-19T14:13:57;7.82;;;3.63;;
9880;SDS011;4979;51.014;6.678;2022-08-19T14:16:23;5.18;;;4.40;;
9880;SDS011;4979;51.014;6.678;2022-08-19T14:18:49;20.98;;;5.22;;
9880;SDS011;4979;51.014;6.678;2022-08-19T14:21:16;4.10;;;3.67;;
9880;SDS011;4979;51.014;6.678;2022-08-19T14:23:45;5.07;;;4.57;;
9880;SDS011;4979;51.014;6.678;2022-08-19T14:26:13;7.43;;;3.80;;
9880;SDS011;4979;51.014;6.678;2022-08-19T14:28:40;5.82;;;3.45;;
9880;SDS011;4979;51.014;6.678;2022-08-19T14:31:14;7.07;;;3.65;;
9880;SDS011;4979;51.014;6.678;2022-08-19T14:33:41;4.10;;;3.63;;
9880;SDS011;4979;51.014;6.678;2022-08-19T14:36:07;3.97;;;3.30;;
9880;SDS011;4979;51.014;6.678;2022-08-19T14:38:32;4.25;;;2.80;;
9880;SDS011;4979;51.014;6.678;2022-08-19T14:41:06;4.93;;;2.90;;
9880;SDS011;4979;51.014;6.678;2022-08-19T14:43:32;3.95;;;2.70;;
9880;SDS011;4979;51.014;6.678;2022-08-19T14:45:58;4.30;;;3.15;;
9880;SDS011;4979;51.014;6.678;2022-08-19T14:48:24;10.38;;;3.08;;
9880;SDS011;4979;51.014;6.678;2022-08-19T14:50:50;3.30;;;2.80;;
9880;SDS011;4979;51.014;6.678;2022-08-19T14:53:17;7.97;;;3.55;;
9880;SDS011;4979;51.014;6.678;2022-08-19T14:55:43;5.18;;;3.40;;
9880;SDS011;4979;51.014;6.678;2022-08-19T14:58:10;6.15;;;4.10;;
9880;SDS011;4979;51.014;6.678;2022-08-19T15:00:37;6.30;;;4.40;;
9880;SDS011;4979;51.014;6.678;2022-08-19T15:03:02;3.97;;;3.67;;
9880;SDS011;4979;51.014;6.678;2022-08-19T15:05:28;4.75;;;2.95;;
9880;SDS011;4979;51.014;6.678;2022-08-19T15:07:53;4.78;;;3.05;;